sensor_id;sensor_type;location;lat;lon;timestamp;pressure;altitude;pressure_sealevel;temperature
19948;BMP180;10135;50.702;7.276;2024-01-25T06:01:20;100683.00;;;11.70
19948;BMP180;10135;50.702;7.276;2024-01-25T06:03:20;100691.00;;;11.70
19948;BMP180;10135;50.702;7.276;2024-01-25T06:05:21;100687.00;;;11.70
19948;BMP180;10135;50.702;7.276;2024-01-25T06:07:22;100694.00;;;11.70
19948;BMP180;10135;50.702;7.276;2024-01-25T06:09:23;100696.00;;;11.60
19948;BMP180;10135;50.702;7.276;2024-01-25T06:11:27;100697.00;;;11.60
19948;BMP180;10135;50.702;7.276;2024-01-25T06:13:28;100698.00;;;11.60
19948;BMP180;10135;50.702;7.276;2024-01-25T06:15:29;100699.00;;;11.60
19948;BMP180;10135;50.702;7.276;2024-01-25T06:17:30;100704.00;;;11.60
19948;BMP180;10135;50.702;7.276;2024-01-25T06:19:31;100707.00;;;11.60
19948;BMP180;10135;50.702;7.276;2024-01-25T06:21:33;100703.00;;;11.60
19948;BMP180;10135;50.702;7.276;2024-01-25T06:23:35;100708.00;;;11.60
19948;BMP180;10135;50.702;7.276;2024-01-25T06:25:36;100711.00;;;11.60
19948;BMP180;10135;50.702;7.276;2024-01-25T06:27:37;100711.00;;;11.60
19948;BMP180;10135;50.702;7.276;2024-01-25T06:29:38;100711.00;;;11.60
19948;BMP180;10135;50.702;7.276;2024-01-25T06:31:43;100714.00;;;11.60
19948;BMP180;10135;50.702;7.276;2024-01-25T06:33:44;100714.00;;;11.60
19948;BMP180;10135;50.702;7.276;2024-01-25T06:35:47;100728.00;;;11.60
19948;BMP180;10135;50.702;7.276;2024-01-25T06:37:48;100733.00;;;11.50
19948;BMP180;10135;50.702;7.276;2024-01-25T06:39:48;100733.00;;;11.50
19948;BMP180;10135;50.702;7.276;2024-01-25T06:41:49;100745.00;;;11.50
19948;BMP180;10135;50.702;7.276;2024-01-25T06:43:50;100747.00;;;11.50
19948;BMP180;10135;50.702;7.276;2024-01-25T06:45:50;100755.00;;;11.50
19948;BMP180;10135;50.702;7.276;2024-01-25T06:47:51;100750.00;;;11.50
19948;BMP180;10135;50.702;7.276;2024-01-25T06:49:52;100756.00;;;11.50
19948;BMP180;10135;50.702;7.276;2024-01-25T06:51:53;100757.00;;;11.50
19948;BMP180;10135;50.702;7.276;2024-01-25T06:53:53;100753.00;;;11.50
19948;BMP180;10135;50.702;7.276;2024-01-25T06:55:54;100756.00;;;11.50
19948;BMP180;10135;50.702;7.276;2024-01-25T06:57:55;100753.00;;;11.50
19948;BMP180;10135;50.702;7.276;2024-01-25T06:59:55;100758.00;;;11.40
19948;BMP180;10135;50.702;7.276;2024-01-25T07:01:56;100762.00;;;11.40
19948;BMP180;10135;50.702;7.276;2024-01-25T07:03:56;100760.00;;;11.40
19948;BMP180;10135;50.702;7.276;2024-01-25T07:05:57;100764.00;;;11.40
19948;BMP180;10135;50.702;7.276;2024-01-25T07:07:58;100757.00;;;11.40
19948;BMP180;10135;50.702;7.276;2024-01-25T07:09:58;100755.00;;;11.40
19948;BMP180;10135;50.702;7.276;2024-01-25T07:11:59;100755.00;;;11.40
19948;BMP180;10135;50.702;7.276;2024-01-25T07:14:00;100760.00;;;11.30
19948;BMP180;10135;50.702;7.276;2024-01-25T07:16:00;100767.00;;;11.30
19948;BMP180;10135;50.702;7.276;2024-01-25T07:18:01;100756.00;;;11.30
19948;BMP180;10135;50.702;7.276;2024-01-25T07:20:02;100752.00;;;11.30
19948;BMP180;10135;50.702;7.276;2024-01-25T07:22:03;100750.00;;;11.30
19948;BMP180;10135;50.702;7.276;2024-01-25T07:24:04;100755.00;;;11.30
19948;BMP180;10135;50.702;7.276;2024-01-25T07:26:05;100753.00;;;11.30
19948;BMP180;10135;50.702;7.276;2024-01-25T07:28:06;100757.00;;;11.30
19948;BMP180;10135;50.702;7.276;2024-01-25T07:30:08;100755.00;;;11.30
19948;BMP180;10135;50.702;7.276;2024-01-25T07:32:09;100759.00;;;11.30
19948;BMP180;10135;50.702;7.276;2024-01-25T07:34:09;100754.00;;;11.30
19948;BMP180;10135;50.702;7.276;2024-01-25T07:36:10;100770.00;;;11.30
19948;BMP180;10135;50.702;7.276;2024-01-25T07:38:11;100775.00;;;11.30
19948;BMP180;10135;50.702;7.276;2024-01-25T07:40:12;100779.00;;;11.30
19948;BMP180;10135;50.702;7.276;2024-01-25T07:42:13;100780.00;;;11.30
19948;BMP180;10135;50.702;7.276;2024-01-25T07:44:14;100773.00;;;11.30
19948;BMP180;10135;50.702;7.276;2024-01-25T07:46:14;100773.00;;;11.40
19948;BMP180;10135;50.702;7.276;2024-01-25T07:48:15;100764.00;;;11.40
19948;BMP180;10135;50.702;7.276;2024-01-25T07:50:16;100766.00;;;11.40
19948;BMP180;10135;50.702;7.276;2024-01-25T07:52:17;100772.00;;;11.40
19948;BMP180;10135;50.702;7.276;2024-01-25T07:54:18;100774.00;;;11.40
19948;BMP180;10135;50.702;7.276;2024-01-25T07:56:18;100770.00;;;11.50
19948;BMP180;10135;50.702;7.276;2024-01-25T07:58:20;100763.00;;;11.50
19948;BMP180;10135;50.702;7.276;2024-01-25T08:00:20;100768.00;;;11.50
19948;BMP180;10135;50.702;7.276;2024-01-25T08:02:21;100768.00;;;11.50
19948;BMP180;10135;50.702;7.276;2024-01-25T08:04:22;100760.00;;;11.50
19948;BMP180;10135;50.702;7.276;2024-01-25T08:06:22;100762.00;;;11.60
19948;BMP180;10135;50.702;7.276;2024-01-25T08:08:23;100746.00;;;11.60
19948;BMP180;10135;50.702;7.276;2024-01-25T08:10:23;100757.00;;;11.70
19948;BMP180;10135;50.702;7.276;2024-01-25T08:12:25;100754.00;;;11.90
19948;BMP180;10135;50.702;7.276;2024-01-25T08:14:26;100756.00;;;12.00
19948;BMP180;10135;50.702;7.276;2024-01-25T08:16:26;100758.00;;;12.20
19948;BMP180;10135;50.702;7.276;2024-01-25T08:18:27;100749.00;;;12.40
19948;BMP180;10135;50.702;7.276;2024-01-25T08:20:31;100754.00;;;12.60
19948;BMP180;10135;50.702;7.276;2024-01-25T08:22:32;100756.00;;;12.80
19948;BMP180;10135;50.702;7.276;2024-01-25T08:24:32;100753.00;;;12.90
19948;BMP180;10135;50.702;7.276;2024-01-25T08:26:33;100757.00;;;13.10
19948;BMP180;10135;50.702;7.276;2024-01-25T08:28:35;100755.00;;;13.30
19948;BMP180;10135;50.702;7.276;2024-01-25T08:30:36;100756.00;;;13.40
19948;BMP180;10135;50.702;7.276;2024-01-25T08:32:37;100758.00;;;13.70
19948;BMP180;10135;50.702;7.276;2024-01-25T08:34:38;100754.00;;;13.90
19948;BMP180;10135;50.702;7.276;2024-01-25T08:36:38;100753.00;;;14.10
19948;BMP180;10135;50.702;7.276;2024-01-25T08:38:39;100756.00;;;14.30
19948;BMP180;10135;50.702;7.276;2024-01-25T08:40:40;100746.00;;;14.60
19948;BMP180;10135;50.702;7.276;2024-01-25T08:42:40;100742.00;;;14.80
19948;BMP180;10135;50.702;7.276;2024-01-25T08:44:41;100733.00;;;15.00
19948;BMP180;10135;50.702;7.276;2024-01-25T08:46:49;100739.00;;;15.20
19948;BMP180;10135;50.702;7.276;2024-01-25T08:48:49;100750.00;;;15.40
19948;BMP180;10135;50.702;7.276;2024-01-25T08:50:50;100748.00;;;15.50
19948;BMP180;10135;50.702;7.276;2024-01-25T08:52:53;100755.00;;;15.60
19948;BMP180;10135;50.702;7.276;2024-01-25T08:54:54;100755.00;;;15.60
19948;BMP180;10135;50.702;7.276;2024-01-25T08:56:55;100760.00;;;15.60
19948;BMP180;10135;50.702;7.276;2024-01-25T08:58:55;100756.00;;;15.60
19948;BMP180;10135;50.702;7.276;2024-01-25T09:00:56;100755.00;;;15.60
19948;BMP180;10135;50.702;7.276;2024-01-25T09:02:57;100757.00;;;15.70
19948;BMP180;10135;50.702;7.276;2024-01-25T09:04:57;100753.00;;;15.70
19948;BMP180;10135;50.702;7.276;2024-01-25T09:06:59;100748.00;;;15.70
19948;BMP180;10135;50.702;7.276;2024-01-25T09:09:00;100746.00;;;15.70
19948;BMP180;10135;50.702;7.276;2024-01-25T09:11:00;100749.00;;;15.80
19948;BMP180;10135;50.702;7.276;2024-01-25T09:13:01;100750.00;;;15.80
19948;BMP180;10135;50.702;7.276;2024-01-25T09:15:02;100751.00;;;15.90
19948;BMP180;10135;50.702;7.276;2024-01-25T09:17:03;100753.00;;;15.90
19948;BMP180;10135;50.702;7.276;2024-01-25T09:19:04;100752.00;;;15.90
19948;BMP180;10135;50.702;7.276;2024-01-25T09:21:05;100758.00;;;15.90
19948;BMP180;10135;50.702;7.276;2024-01-25T09:23:06;100759.00;;;15.80
19948;BMP180;10135;50.702;7.276;2024-01-25T09:25:07;100751.00;;;15.80
19948;BMP180;10135;50.702;7.276;2024-01-25T09:27:08;100750.00;;;15.70
19948;BMP180;10135;50.702;7.276;2024-01-25T09:29:09;100753.00;;;15.70
19948;BMP180;10135;50.702;7.276;2024-01-25T09:31:10;100757.00;;;15.60
19948;BMP180;10135;50.702;7.276;2024-01-25T09:33:10;100745.00;;;15.60
19948;BMP180;10135;50.702;7.276;2024-01-25T09:35:11;100753.00;;;15.50
19948;BMP180;10135;50.702;7.276;2024-01-25T09:37:11;100749.00;;;15.40
19948;BMP180;10135;50.702;7.276;2024-01-25T09:39:12;100752.00;;;15.30
19948;BMP180;10135;50.702;7.276;2024-01-25T09:41:14;100760.00;;;15.20
19948;BMP180;10135;50.702;7.276;2024-01-25T09:43:15;100758.00;;;15.20
19948;BMP180;10135;50.702;7.276;2024-01-25T09:45:19;100768.00;;;15.10
19948;BMP180;10135;50.702;7.276;2024-01-25T09:47:20;100776.00;;;15.10
19948;BMP180;10135;50.702;7.276;2024-01-25T09:49:21;100783.00;;;15.00
19948;BMP180;10135;50.702;7.276;2024-01-25T09:51:23;100778.00;;;15.00
19948;BMP180;10135;50.702;7.276;2024-01-25T09:53:24;100777.00;;;14.90
19948;BMP180;10135;50.702;7.276;2024-01-25T09:55:26;100771.00;;;14.90
19948;BMP180;10135;50.702;7.276;2024-01-25T09:57:30;100774.00;;;14.90
19948;BMP180;10135;50.702;7.276;2024-01-25T09:59:31;100771.00;;;14.80
19948;BMP180;10135;50.702;7.276;2024-01-25T10:01:31;100776.00;;;14.80
19948;BMP180;10135;50.702;7.276;2024-01-25T10:03:32;100775.00;;;14.70
19948;BMP180;10135;50.702;7.276;2024-01-25T10:05:33;100782.00;;;14.70
19948;BMP180;10135;50.702;7.276;2024-01-25T10:07:42;100777.00;;;14.60
19948;BMP180;10135;50.702;7.276;2024-01-25T10:09:42;100786.00;;;14.60
19948;BMP180;10135;50.702;7.276;2024-01-25T10:11:43;100782.00;;;14.50
19948;BMP180;10135;50.702;7.276;2024-01-25T10:13:46;100784.00;;;14.50
19948;BMP180;10135;50.702;7.276;2024-01-25T10:15:47;100783.00;;;14.50
19948;BMP180;10135;50.702;7.276;2024-01-25T10:17:49;100798.00;;;14.50
19948;BMP180;10135;50.702;7.276;2024-01-25T10:19:49;100797.00;;;14.50
19948;BMP180;10135;50.702;7.276;2024-01-25T10:21:50;100799.00;;;14.50
19948;BMP180;10135;50.702;7.276;2024-01-25T10:23:51;100805.00;;;14.50
19948;BMP180;10135;50.702;7.276;2024-01-25T10:25:53;100803.00;;;14.50
19948;BMP180;10135;50.702;7.276;2024-01-25T10:27:56;100799.00;;;14.50
19948;BMP180;10135;50.702;7.276;2024-01-25T10:29:56;100803.00;;;14.40
19948;BMP180;10135;50.702;7.276;2024-01-25T10:31:57;100789.00;;;14.40
19948;BMP180;10135;50.702;7.276;2024-01-25T10:33:59;100775.00;;;14.40
19948;BMP180;10135;50.702;7.276;2024-01-25T10:36:01;100770.00;;;14.40
19948;BMP180;10135;50.702;7.276;2024-01-25T10:38:04;100771.00;;;14.40
19948;BMP180;10135;50.702;7.276;2024-01-25T10:40:09;100764.00;;;14.50
19948;BMP180;10135;50.702;7.276;2024-01-25T10:42:10;100767.00;;;14.50
19948;BMP180;10135;50.702;7.276;2024-01-25T10:44:11;100771.00;;;14.50
19948;BMP180;10135;50.702;7.276;2024-01-25T10:46:11;100767.00;;;14.50
19948;BMP180;10135;50.702;7.276;2024-01-25T10:48:12;100776.00;;;14.50
19948;BMP180;10135;50.702;7.276;2024-01-25T10:50:13;100784.00;;;14.60
19948;BMP180;10135;50.702;7.276;2024-01-25T10:52:15;100777.00;;;14.60
19948;BMP180;10135;50.702;7.276;2024-01-25T10:54:16;100776.00;;;14.60
19948;BMP180;10135;50.702;7.276;2024-01-25T10:56:17;100764.00;;;14.60
19948;BMP180;10135;50.702;7.276;2024-01-25T10:58:19;100756.00;;;14.70
19948;BMP180;10135;50.702;7.276;2024-01-25T11:00:21;100753.00;;;14.70
19948;BMP180;10135;50.702;7.276;2024-01-25T11:02:24;100748.00;;;14.70
19948;BMP180;10135;50.702;7.276;2024-01-25T11:04:24;100749.00;;;14.70
19948;BMP180;10135;50.702;7.276;2024-01-25T11:06:28;100737.00;;;14.70
19948;BMP180;10135;50.702;7.276;2024-01-25T11:08:29;100746.00;;;14.70
19948;BMP180;10135;50.702;7.276;2024-01-25T11:10:35;100734.00;;;14.70
19948;BMP180;10135;50.702;7.276;2024-01-25T11:12:51;100741.00;;;14.70
19948;BMP180;10135;50.702;7.276;2024-01-25T11:14:55;100742.00;;;14.80
19948;BMP180;10135;50.702;7.276;2024-01-25T11:16:56;100746.00;;;14.70
19948;BMP180;10135;50.702;7.276;2024-01-25T11:18:59;100746.00;;;14.80
19948;BMP180;10135;50.702;7.276;2024-01-25T11:21:05;100746.00;;;14.80
19948;BMP180;10135;50.702;7.276;2024-01-25T11:23:07;100740.00;;;14.80
19948;BMP180;10135;50.702;7.276;2024-01-25T11:25:22;100737.00;;;14.80
19948;BMP180;10135;50.702;7.276;2024-01-25T11:27:22;100734.00;;;14.80
19948;BMP180;10135;50.702;7.276;2024-01-25T11:29:23;100725.00;;;14.80
19948;BMP180;10135;50.702;7.276;2024-01-25T11:31:24;100722.00;;;14.80
19948;BMP180;10135;50.702;7.276;2024-01-25T11:33:25;100714.00;;;14.90
19948;BMP180;10135;50.702;7.276;2024-01-25T11:35:26;100708.00;;;14.90
19948;BMP180;10135;50.702;7.276;2024-01-25T11:37:27;100712.00;;;14.90
19948;BMP180;10135;50.702;7.276;2024-01-25T11:39:28;100705.00;;;15.00
19948;BMP180;10135;50.702;7.276;2024-01-25T11:41:30;100704.00;;;15.00
19948;BMP180;10135;50.702;7.276;2024-01-25T11:43:32;100707.00;;;15.00
19948;BMP180;10135;50.702;7.276;2024-01-25T11:45:33;100698.00;;;15.00
19948;BMP180;10135;50.702;7.276;2024-01-25T11:47:34;100693.00;;;15.00
19948;BMP180;10135;50.702;7.276;2024-01-25T11:49:35;100691.00;;;15.00
19948;BMP180;10135;50.702;7.276;2024-01-25T11:51:36;100691.00;;;15.10
19948;BMP180;10135;50.702;7.276;2024-01-25T11:53:37;100694.00;;;15.10
19948;BMP180;10135;50.702;7.276;2024-01-25T11:55:38;100687.00;;;15.10
19948;BMP180;10135;50.702;7.276;2024-01-25T11:57:40;100692.00;;;15.10
19948;BMP180;10135;50.702;7.276;2024-01-25T11:59:41;100690.00;;;15.20
19948;BMP180;10135;50.702;7.276;2024-01-25T12:01:45;100688.00;;;15.20
19948;BMP180;10135;50.702;7.276;2024-01-25T12:03:46;100686.00;;;15.30
19948;BMP180;10135;50.702;7.276;2024-01-25T12:05:47;100690.00;;;15.30
19948;BMP180;10135;50.702;7.276;2024-01-25T12:07:48;100682.00;;;15.30
19948;BMP180;10135;50.702;7.276;2024-01-25T12:10:18;100683.00;;;15.40
19948;BMP180;10135;50.702;7.276;2024-01-25T12:12:18;100680.00;;;15.40
19948;BMP180;10135;50.702;7.276;2024-01-25T12:14:20;100678.00;;;15.40
19948;BMP180;10135;50.702;7.276;2024-01-25T12:16:21;100674.00;;;15.50
19948;BMP180;10135;50.702;7.276;2024-01-25T12:18:22;100673.00;;;15.50
19948;BMP180;10135;50.702;7.276;2024-01-25T12:20:22;100664.00;;;15.60
19948;BMP180;10135;50.702;7.276;2024-01-25T12:22:26;100656.00;;;15.60
19948;BMP180;10135;50.702;7.276;2024-01-25T12:24:27;100654.00;;;15.60
19948;BMP180;10135;50.702;7.276;2024-01-25T12:26:28;100657.00;;;15.60
19948;BMP180;10135;50.702;7.276;2024-01-25T12:28:30;100648.00;;;15.70
19948;BMP180;10135;50.702;7.276;2024-01-25T12:30:32;100645.00;;;15.70
19948;BMP180;10135;50.702;7.276;2024-01-25T12:32:33;100633.00;;;15.70
19948;BMP180;10135;50.702;7.276;2024-01-25T12:34:34;100630.00;;;15.60
19948;BMP180;10135;50.702;7.276;2024-01-25T12:36:34;100625.00;;;15.70
19948;BMP180;10135;50.702;7.276;2024-01-25T12:38:35;100635.00;;;15.70
19948;BMP180;10135;50.702;7.276;2024-01-25T12:40:36;100637.00;;;15.70
19948;BMP180;10135;50.702;7.276;2024-01-25T12:42:36;100638.00;;;15.60
19948;BMP180;10135;50.702;7.276;2024-01-25T12:44:37;100639.00;;;15.60
19948;BMP180;10135;50.702;7.276;2024-01-25T12:46:38;100632.00;;;15.60
19948;BMP180;10135;50.702;7.276;2024-01-25T12:48:38;100633.00;;;15.60
19948;BMP180;10135;50.702;7.276;2024-01-25T12:50:39;100626.00;;;15.60
19948;BMP180;10135;50.702;7.276;2024-01-25T12:52:39;100627.00;;;15.60
19948;BMP180;10135;50.702;7.276;2024-01-25T12:54:41;100636.00;;;15.60
19948;BMP180;10135;50.702;7.276;2024-01-25T12:56:42;100640.00;;;15.50
19948;BMP180;10135;50.702;7.276;2024-01-25T12:58:42;100637.00;;;15.50
19948;BMP180;10135;50.702;7.276;2024-01-25T13:00:43;100632.00;;;15.50
19948;BMP180;10135;50.702;7.276;2024-01-25T13:02:45;100611.00;;;15.50
19948;BMP180;10135;50.702;7.276;2024-01-25T13:04:46;100614.00;;;15.50
19948;BMP180;10135;50.702;7.276;2024-01-25T13:06:47;100618.00;;;15.50
19948;BMP180;10135;50.702;7.276;2024-01-25T13:08:48;100624.00;;;15.50
19948;BMP180;10135;50.702;7.276;2024-01-25T13:10:49;100632.00;;;15.50
19948;BMP180;10135;50.702;7.276;2024-01-25T13:12:50;100628.00;;;15.50
19948;BMP180;10135;50.702;7.276;2024-01-25T13:14:51;100621.00;;;15.50
19948;BMP180;10135;50.702;7.276;2024-01-25T13:16:51;100623.00;;;15.50
19948;BMP180;10135;50.702;7.276;2024-01-25T13:18:52;100623.00;;;15.50
19948;BMP180;10135;50.702;7.276;2024-01-25T13:20:52;100618.00;;;15.50
19948;BMP180;10135;50.702;7.276;2024-01-25T13:22:53;100615.00;;;15.50
19948;BMP180;10135;50.702;7.276;2024-01-25T13:24:54;100617.00;;;15.60
19948;BMP180;10135;50.702;7.276;2024-01-25T13:26:54;100611.00;;;15.50
19948;BMP180;10135;50.702;7.276;2024-01-25T13:28:55;100610.00;;;15.60
19948;BMP180;10135;50.702;7.276;2024-01-25T13:30:56;100613.00;;;15.60
19948;BMP180;10135;50.702;7.276;2024-01-25T13:32:57;100599.00;;;15.60
19948;BMP180;10135;50.702;7.276;2024-01-25T13:34:58;100595.00;;;15.50
19948;BMP180;10135;50.702;7.276;2024-01-25T13:36:59;100597.00;;;15.50
19948;BMP180;10135;50.702;7.276;2024-01-25T13:39:00;100579.00;;;15.50
19948;BMP180;10135;50.702;7.276;2024-01-25T13:41:01;100576.00;;;15.50
19948;BMP180;10135;50.702;7.276;2024-01-25T13:43:01;100581.00;;;15.50
19948;BMP180;10135;50.702;7.276;2024-01-25T13:45:03;100581.00;;;15.40
19948;BMP180;10135;50.702;7.276;2024-01-25T13:47:04;100586.00;;;15.40
19948;BMP180;10135;50.702;7.276;2024-01-25T13:49:05;100587.00;;;15.40
19948;BMP180;10135;50.702;7.276;2024-01-25T13:51:06;100577.00;;;15.40
19948;BMP180;10135;50.702;7.276;2024-01-25T13:53:06;100566.00;;;15.40
19948;BMP180;10135;50.702;7.276;2024-01-25T13:55:08;100564.00;;;15.40
19948;BMP180;10135;50.702;7.276;2024-01-25T13:57:08;100553.00;;;15.40
19948;BMP180;10135;50.702;7.276;2024-01-25T13:59:09;100548.00;;;15.30
19948;BMP180;10135;50.702;7.276;2024-01-25T14:01:09;100553.00;;;15.40
19948;BMP180;10135;50.702;7.276;2024-01-25T14:03:10;100554.00;;;15.30
19948;BMP180;10135;50.702;7.276;2024-01-25T14:05:11;100558.00;;;15.30
19948;BMP180;10135;50.702;7.276;2024-01-25T14:07:15;100551.00;;;15.30
19948;BMP180;10135;50.702;7.276;2024-01-25T14:09:17;100547.00;;;15.30
19948;BMP180;10135;50.702;7.276;2024-01-25T14:11:17;100545.00;;;15.30
19948;BMP180;10135;50.702;7.276;2024-01-25T14:13:18;100532.00;;;15.30
19948;BMP180;10135;50.702;7.276;2024-01-25T14:15:19;100540.00;;;15.30
19948;BMP180;10135;50.702;7.276;2024-01-25T14:17:20;100539.00;;;15.30
19948;BMP180;10135;50.702;7.276;2024-01-25T14:19:22;100548.00;;;15.30
19948;BMP180;10135;50.702;7.276;2024-01-25T14:21:22;100547.00;;;15.20
19948;BMP180;10135;50.702;7.276;2024-01-25T14:23:23;100546.00;;;15.30
19948;BMP180;10135;50.702;7.276;2024-01-25T14:25:24;100546.00;;;15.20
19948;BMP180;10135;50.702;7.276;2024-01-25T14:27:24;100540.00;;;15.20
19948;BMP180;10135;50.702;7.276;2024-01-25T14:29:25;100534.00;;;15.20
19948;BMP180;10135;50.702;7.276;2024-01-25T14:31:25;100530.00;;;15.20
19948;BMP180;10135;50.702;7.276;2024-01-25T14:33:26;100532.00;;;15.20
19948;BMP180;10135;50.702;7.276;2024-01-25T14:35:27;100537.00;;;15.20
19948;BMP180;10135;50.702;7.276;2024-01-25T14:37:29;100536.00;;;15.10
19948;BMP180;10135;50.702;7.276;2024-01-25T14:39:31;100531.00;;;15.10
19948;BMP180;10135;50.702;7.276;2024-01-25T14:41:32;100539.00;;;15.10
19948;BMP180;10135;50.702;7.276;2024-01-25T14:43:33;100539.00;;;15.10
19948;BMP180;10135;50.702;7.276;2024-01-25T14:45:34;100541.00;;;15.10
19948;BMP180;10135;50.702;7.276;2024-01-25T14:47:36;100546.00;;;15.10
19948;BMP180;10135;50.702;7.276;2024-01-25T14:49:37;100532.00;;;15.10
19948;BMP180;10135;50.702;7.276;2024-01-25T14:51:38;100527.00;;;15.10
19948;BMP180;10135;50.702;7.276;2024-01-25T14:53:39;100530.00;;;15.10
19948;BMP180;10135;50.702;7.276;2024-01-25T14:55:39;100533.00;;;15.10
19948;BMP180;10135;50.702;7.276;2024-01-25T14:57:40;100525.00;;;15.00
19948;BMP180;10135;50.702;7.276;2024-01-25T14:59:41;100523.00;;;15.00
19948;BMP180;10135;50.702;7.276;2024-01-25T15:01:47;100526.00;;;15.00
19948;BMP180;10135;50.702;7.276;2024-01-25T15:03:48;100521.00;;;15.00
19948;BMP180;10135;50.702;7.276;2024-01-25T15:05:49;100532.00;;;15.00
19948;BMP180;10135;50.702;7.276;2024-01-25T15:07:49;100533.00;;;15.00
19948;BMP180;10135;50.702;7.276;2024-01-25T15:09:50;100529.00;;;15.00
19948;BMP180;10135;50.702;7.276;2024-01-25T15:11:50;100530.00;;;15.00
19948;BMP180;10135;50.702;7.276;2024-01-25T15:13:51;100518.00;;;15.00
19948;BMP180;10135;50.702;7.276;2024-01-25T15:15:52;100518.00;;;15.00
19948;BMP180;10135;50.702;7.276;2024-01-25T15:17:52;100513.00;;;15.00
19948;BMP180;10135;50.702;7.276;2024-01-25T15:19:53;100514.00;;;15.00
19948;BMP180;10135;50.702;7.276;2024-01-25T15:21:53;100513.00;;;15.00
19948;BMP180;10135;50.702;7.276;2024-01-25T15:23:54;100516.00;;;14.90
19948;BMP180;10135;50.702;7.276;2024-01-25T15:25:55;100516.00;;;14.90
19948;BMP180;10135;50.702;7.276;2024-01-25T15:27:55;100502.00;;;14.90
19948;BMP180;10135;50.702;7.276;2024-01-25T15:29:56;100502.00;;;14.90
19948;BMP180;10135;50.702;7.276;2024-01-25T15:31:57;100495.00;;;14.90
19948;BMP180;10135;50.702;7.276;2024-01-25T15:33:57;100495.00;;;14.90
19948;BMP180;10135;50.702;7.276;2024-01-25T15:35:58;100493.00;;;14.90
19948;BMP180;10135;50.702;7.276;2024-01-25T15:37:59;100495.00;;;14.90
19948;BMP180;10135;50.702;7.276;2024-01-25T15:40:06;100487.00;;;14.80
19948;BMP180;10135;50.702;7.276;2024-01-25T15:42:11;100488.00;;;14.80
19948;BMP180;10135;50.702;7.276;2024-01-25T15:44:12;100482.00;;;14.80
19948;BMP180;10135;50.702;7.276;2024-01-25T15:46:12;100489.00;;;14.80
19948;BMP180;10135;50.702;7.276;2024-01-25T15:48:13;100484.00;;;14.80
19948;BMP180;10135;50.702;7.276;2024-01-25T15:50:14;100483.00;;;14.80
19948;BMP180;10135;50.702;7.276;2024-01-25T15:52:14;100479.00;;;14.80
19948;BMP180;10135;50.702;7.276;2024-01-25T15:54:15;100484.00;;;14.80
19948;BMP180;10135;50.702;7.276;2024-01-25T15:56:15;100483.00;;;14.70
19948;BMP180;10135;50.702;7.276;2024-01-25T15:58:16;100484.00;;;14.70
19948;BMP180;10135;50.702;7.276;2024-01-25T16:00:17;100478.00;;;14.70
19948;BMP180;10135;50.702;7.276;2024-01-25T16:02:18;100479.00;;;14.70
19948;BMP180;10135;50.702;7.276;2024-01-25T16:04:18;100478.00;;;14.70
19948;BMP180;10135;50.702;7.276;2024-01-25T16:06:19;100475.00;;;14.70
19948;BMP180;10135;50.702;7.276;2024-01-25T16:08:21;100472.00;;;14.70
19948;BMP180;10135;50.702;7.276;2024-01-25T16:10:22;100476.00;;;14.70
19948;BMP180;10135;50.702;7.276;2024-01-25T16:12:23;100475.00;;;14.70
19948;BMP180;10135;50.702;7.276;2024-01-25T16:14:24;100476.00;;;14.60
19948;BMP180;10135;50.702;7.276;2024-01-25T16:16:24;100471.00;;;14.60
19948;BMP180;10135;50.702;7.276;2024-01-25T16:18:25;100474.00;;;14.60
19948;BMP180;10135;50.702;7.276;2024-01-25T16:20:26;100480.00;;;14.60
19948;BMP180;10135;50.702;7.276;2024-01-25T16:22:26;100480.00;;;14.60
19948;BMP180;10135;50.702;7.276;2024-01-25T16:24:27;100476.00;;;14.60
19948;BMP180;10135;50.702;7.276;2024-01-25T16:26:28;100476.00;;;14.60
19948;BMP180;10135;50.702;7.276;2024-01-25T16:28:28;100476.00;;;14.60
19948;BMP180;10135;50.702;7.276;2024-01-25T16:30:29;100469.00;;;14.60
19948;BMP180;10135;50.702;7.276;2024-01-25T16:32:30;100475.00;;;14.60
19948;BMP180;10135;50.702;7.276;2024-01-25T16:34:30;100470.00;;;14.60
19948;BMP180;10135;50.702;7.276;2024-01-25T16:36:31;100473.00;;;14.60
19948;BMP180;10135;50.702;7.276;2024-01-25T16:38:32;100467.00;;;14.60
19948;BMP180;10135;50.702;7.276;2024-01-25T16:40:32;100469.00;;;14.60
19948;BMP180;10135;50.702;7.276;2024-01-25T16:42:33;100465.00;;;14.60
19948;BMP180;10135;50.702;7.276;2024-01-25T16:44:35;100466.00;;;14.60
19948;BMP180;10135;50.702;7.276;2024-01-25T16:46:35;100465.00;;;14.60
19948;BMP180;10135;50.702;7.276;2024-01-25T16:48:36;100470.00;;;14.60
19948;BMP180;10135;50.702;7.276;2024-01-25T16:50:37;100462.00;;;14.60
19948;BMP180;10135;50.702;7.276;2024-01-25T16:52:37;100467.00;;;14.60
19948;BMP180;10135;50.702;7.276;2024-01-25T16:54:38;100455.00;;;14.50
19948;BMP180;10135;50.702;7.276;2024-01-25T16:56:38;100459.00;;;14.50
19948;BMP180;10135;50.702;7.276;2024-01-25T16:58:39;100460.00;;;14.50
19948;BMP180;10135;50.702;7.276;2024-01-25T17:00:40;100462.00;;;14.50
19948;BMP180;10135;50.702;7.276;2024-01-25T17:02:40;100461.00;;;14.50
19948;BMP180;10135;50.702;7.276;2024-01-25T17:04:41;100465.00;;;14.50
19948;BMP180;10135;50.702;7.276;2024-01-25T17:06:43;100468.00;;;14.50
19948;BMP180;10135;50.702;7.276;2024-01-25T17:08:44;100465.00;;;14.50
19948;BMP180;10135;50.702;7.276;2024-01-25T17:10:45;100463.00;;;14.50
19948;BMP180;10135;50.702;7.276;2024-01-25T17:12:46;100467.00;;;14.50
19948;BMP180;10135;50.702;7.276;2024-01-25T17:14:47;100460.00;;;14.50
19948;BMP180;10135;50.702;7.276;2024-01-25T17:16:47;100457.00;;;14.50
19948;BMP180;10135;50.702;7.276;2024-01-25T17:18:48;100461.00;;;14.50
19948;BMP180;10135;50.702;7.276;2024-01-25T17:20:48;100451.00;;;14.50
19948;BMP180;10135;50.702;7.276;2024-01-25T17:22:49;100446.00;;;14.50
19948;BMP180;10135;50.702;7.276;2024-01-25T17:24:50;100441.00;;;14.50
19948;BMP180;10135;50.702;7.276;2024-01-25T17:26:51;100442.00;;;14.50
19948;BMP180;10135;50.702;7.276;2024-01-25T17:28:52;100434.00;;;14.50